createdAt,value
2023-01-29T00:02:11.969Z,26.75
2023-01-29T00:04:39.184Z,28.13
2023-01-29T00:07:06.165Z,26.52
2023-01-29T00:09:33.226Z,25.23
2023-01-29T00:12:00.190Z,27.23
2023-01-29T00:14:27.638Z,23.13
2023-01-29T00:16:54.822Z,28.35
2023-01-29T00:19:22.168Z,30.75
2023-01-29T00:21:49.175Z,27.80
2023-01-29T00:24:16.367Z,28.70
2023-01-29T00:26:43.459Z,23.13
2023-01-29T00:29:10.831Z,24.38
2023-01-29T00:31:38.227Z,20.98
2023-01-29T00:34:07.373Z,21.52
2023-01-29T00:36:34.338Z,24.50
2023-01-29T00:39:10.513Z,22.08
2023-01-29T00:41:56.776Z,23.02
2023-01-29T00:44:42.195Z,24.67
2023-01-29T00:47:29.189Z,27.00
2023-01-29T00:49:56.969Z,26.65
2023-01-29T00:52:24.155Z,22.75
2023-01-29T00:54:55.767Z,22.77
2023-01-29T00:57:24.568Z,23.98
2023-01-29T00:59:51.665Z,21.20
2023-01-29T01:02:37.750Z,22.65
2023-01-29T01:05:07.730Z,21.73
2023-01-29T01:07:34.721Z,23.08
2023-01-29T01:10:20.231Z,22.77
2023-01-29T01:12:53.804Z,24.40
2023-01-29T01:15:21.835Z,24.10
2023-01-29T01:17:51.691Z,25.40
2023-01-29T01:20:19.427Z,22.77
2023-01-29T01:22:46.556Z,24.98
2023-01-29T01:25:13.615Z,23.45
2023-01-29T01:27:41.120Z,24.45
2023-01-29T01:30:17.659Z,23.60
2023-01-29T01:32:45.299Z,25.42
2023-01-29T01:35:14.808Z,23.92
2023-01-29T01:37:42.283Z,25.05
2023-01-29T01:40:18.390Z,25.40
2023-01-29T01:42:49.285Z,22.92
2023-01-29T01:45:29.709Z,27.85
2023-01-29T01:48:00.255Z,23.90
2023-01-29T01:50:32.863Z,23.67
2023-01-29T01:53:14.467Z,24.30
2023-01-29T01:55:47.059Z,24.20
2023-01-29T01:58:20.140Z,24.50
2023-01-29T02:00:48.107Z,25.83
2023-01-29T02:03:34.263Z,26.83
2023-01-29T02:06:19.943Z,25.77
2023-01-29T02:09:17.238Z,27.40
2023-01-29T02:11:44.235Z,25.98
2023-01-29T02:14:12.199Z,26.92
2023-01-29T02:16:39.176Z,24.63
2023-01-29T02:19:17.298Z,22.75
2023-01-29T02:22:07.135Z,25.58
2023-01-29T02:24:58.529Z,25.40
2023-01-29T02:27:43.100Z,27.65
2023-01-29T02:30:23.921Z,22.52
2023-01-29T02:32:59.419Z,27.23
2023-01-29T02:35:45.099Z,23.73
2023-01-29T02:38:28.738Z,28.50
2023-01-29T02:41:02.056Z,24.70
2023-01-29T02:43:50.964Z,25.58
2023-01-29T02:46:23.157Z,24.67
2023-01-29T02:48:55.900Z,25.20
2023-01-29T02:51:36.454Z,26.48
2023-01-29T02:54:27.521Z,27.67
2023-01-29T02:57:04.632Z,23.13
2023-01-29T02:59:54.116Z,27.83
2023-01-29T03:02:31.134Z,28.52
2023-01-29T03:05:07.690Z,27.10
2023-01-29T03:07:46.315Z,26.98
2023-01-29T03:11:05.369Z,23.95
2023-01-29T03:13:55.623Z,24.98
2023-01-29T03:16:47.884Z,25.42
2023-01-29T03:19:24.109Z,24.50
2023-01-29T03:22:04.606Z,26.40
2023-01-29T03:25:16.407Z,22.58
2023-01-29T03:28:18.438Z,22.55
2023-01-29T03:31:14.017Z,27.02
2023-01-29T03:34:01.960Z,24.02
2023-01-29T03:36:45.583Z,25.60
2023-01-29T03:39:15.441Z,23.35
2023-01-29T03:41:54.950Z,23.35
2023-01-29T03:44:30.545Z,23.23
2023-01-29T03:46:57.613Z,23.27
2023-01-29T03:50:03.147Z,24.35
2023-01-29T03:52:49.383Z,28.80
2023-01-29T03:55:25.197Z,22.58
2023-01-29T03:57:54.911Z,23.58
2023-01-29T04:00:56.460Z,25.02
2023-01-29T04:03:35.469Z,22.85
2023-01-29T04:06:16.696Z,25.00
2023-01-29T04:09:00.047Z,22.83
2023-01-29T04:11:28.845Z,20.50
2023-01-29T04:13:57.531Z,22.42
2023-01-29T04:16:29.472Z,24.92
2023-01-29T04:19:13.356Z,24.50
2023-01-29T04:21:42.911Z,26.00
2023-01-29T04:24:12.612Z,24.23
2023-01-29T04:26:54.068Z,22.70
2023-01-29T04:29:30.323Z,21.17
2023-01-29T04:32:13.734Z,22.33
2023-01-29T04:35:08.947Z,19.48
2023-01-29T04:37:56.257Z,23.50
2023-01-29T04:40:39.339Z,22.27
2023-01-29T04:43:34.775Z,20.98
2023-01-29T04:46:19.653Z,22.80
2023-01-29T04:48:49.437Z,21.08
2023-01-29T04:51:22.304Z,21.77
2023-01-29T04:53:58.509Z,21.08
2023-01-29T04:56:43.773Z,22.00
2023-01-29T04:59:17.749Z,23.77
2023-01-29T05:01:45.502Z,22.85
2023-01-29T05:04:16.147Z,20.70
2023-01-29T05:06:46.776Z,26.58
2023-01-29T05:09:16.214Z,24.25
2023-01-29T05:11:45.231Z,21.58
2023-01-29T05:14:16.475Z,23.80
2023-01-29T05:16:51.586Z,23.30
2023-01-29T05:19:18.619Z,22.77
2023-01-29T05:21:48.513Z,23.05
2023-01-29T05:24:18.386Z,23.33
2023-01-29T05:27:07.107Z,24.08
2023-01-29T05:29:34.319Z,23.98
2023-01-29T05:32:01.424Z,24.95
2023-01-29T05:34:28.340Z,24.25
2023-01-29T05:36:55.341Z,23.92
2023-01-29T05:39:22.410Z,21.58
2023-01-29T05:41:49.356Z,25.42
2023-01-29T05:44:16.273Z,23.65
2023-01-29T05:46:44.102Z,26.80
2023-01-29T05:49:11.126Z,25.20
2023-01-29T05:51:38.212Z,24.02
2023-01-29T05:54:05.511Z,22.33
2023-01-29T05:56:32.433Z,26.27
2023-01-29T05:58:59.433Z,22.15
2023-01-29T06:01:26.735Z,24.17
2023-01-29T06:03:53.698Z,25.42
2023-01-29T06:06:20.749Z,25.58
2023-01-29T06:08:48.001Z,25.40
2023-01-29T06:11:18.297Z,25.10
2023-01-29T06:13:46.284Z,26.48
2023-01-29T06:16:14.083Z,25.65
2023-01-29T06:18:41.649Z,25.90
2023-01-29T06:21:11.461Z,29.60
2023-01-29T06:23:38.632Z,23.83
2023-01-29T06:26:08.445Z,27.08
2023-01-29T06:28:35.921Z,27.67
2023-01-29T06:31:22.133Z,24.80
2023-01-29T06:33:51.390Z,27.73
2023-01-29T06:36:18.474Z,27.55
2023-01-29T06:38:45.405Z,29.00
2023-01-29T06:41:16.084Z,23.70
2023-01-29T06:43:45.997Z,25.85
2023-01-29T06:46:13.033Z,28.95
2023-01-29T06:48:40.055Z,24.73
2023-01-29T06:51:08.884Z,30.38
2023-01-29T06:53:37.638Z,30.15
2023-01-29T06:56:05.468Z,26.65
2023-01-29T06:58:32.576Z,26.58
2023-01-29T07:01:10.916Z,33.03
2023-01-29T07:03:38.904Z,29.95
2023-01-29T07:06:06.991Z,26.65
2023-01-29T07:08:38.239Z,28.73
2023-01-29T07:11:06.348Z,26.90
2023-01-29T07:13:33.656Z,27.42
2023-01-29T07:16:05.235Z,29.15
2023-01-29T07:18:32.411Z,29.92
2023-01-29T07:20:59.525Z,29.75
2023-01-29T07:23:26.541Z,26.92
2023-01-29T07:25:53.479Z,30.35
2023-01-29T07:28:23.407Z,26.95
2023-01-29T07:30:50.571Z,27.50
2023-01-29T07:33:17.571Z,29.13
2023-01-29T07:35:44.799Z,31.15
2023-01-29T07:38:12.220Z,26.52
2023-01-29T07:40:39.290Z,30.00
2023-01-29T07:43:08.028Z,28.83
2023-01-29T07:45:36.882Z,30.20
2023-01-29T07:48:07.880Z,26.50
2023-01-29T07:50:35.629Z,31.58
2023-01-29T07:53:03.028Z,28.95
2023-01-29T07:55:30.257Z,27.73
2023-01-29T07:58:03.151Z,30.40
2023-01-29T08:00:31.633Z,26.88
2023-01-29T08:03:10.892Z,26.27
2023-01-29T08:05:37.908Z,28.83
2023-01-29T08:08:07.297Z,29.85
2023-01-29T08:10:36.234Z,31.13
2023-01-29T08:13:04.266Z,27.88
2023-01-29T08:15:32.689Z,28.40
2023-01-29T08:18:02.355Z,26.85
2023-01-29T08:20:29.593Z,28.70
2023-01-29T08:23:04.616Z,26.15
2023-01-29T08:25:32.507Z,36.17
2023-01-29T08:28:00.684Z,31.30
2023-01-29T08:30:32.837Z,30.75
2023-01-29T08:33:00.260Z,31.17
2023-01-29T08:35:27.668Z,28.30
2023-01-29T08:38:03.475Z,31.08
2023-01-29T08:40:32.832Z,31.08
2023-01-29T08:43:09.069Z,29.83
2023-01-29T08:45:42.154Z,29.98
2023-01-29T08:48:10.017Z,32.20
2023-01-29T08:50:37.318Z,30.55
2023-01-29T08:53:08.004Z,30.73
2023-01-29T08:55:39.534Z,30.73
2023-01-29T08:58:08.064Z,29.48
2023-01-29T09:00:35.427Z,31.63
2023-01-29T09:03:03.271Z,30.02
2023-01-29T09:05:30.363Z,33.05
2023-01-29T09:07:58.078Z,29.20
2023-01-29T09:10:26.219Z,33.53
2023-01-29T09:12:53.130Z,30.35
2023-01-29T09:15:20.376Z,30.85
2023-01-29T09:17:49.433Z,29.20
2023-01-29T09:20:16.974Z,33.50
2023-01-29T09:22:44.276Z,31.05
2023-01-29T09:25:11.350Z,32.25
2023-01-29T09:27:38.319Z,31.55
2023-01-29T09:30:07.239Z,35.88
2023-01-29T09:32:52.721Z,29.73
2023-01-29T09:35:20.069Z,30.23
2023-01-29T09:37:51.167Z,27.75
2023-01-29T09:40:56.834Z,27.13
2023-01-29T09:43:34.910Z,29.02
2023-01-29T09:46:15.207Z,27.17
2023-01-29T09:48:43.055Z,26.98
2023-01-29T09:51:28.663Z,33.03
2023-01-29T09:54:08.796Z,28.65
2023-01-29T09:56:35.872Z,29.02
2023-01-29T09:59:02.844Z,30.95
2023-01-29T10:01:46.120Z,29.75
2023-01-29T10:04:50.615Z,30.35
2023-01-29T10:07:30.744Z,28.08
2023-01-29T10:10:34.768Z,25.58
2023-01-29T10:13:20.157Z,27.27
2023-01-29T10:15:52.690Z,26.95
2023-01-29T10:18:37.468Z,26.40
2023-01-29T10:21:41.437Z,23.85
2023-01-29T10:24:11.307Z,25.67
2023-01-29T10:26:40.742Z,29.88
2023-01-29T10:29:08.625Z,27.98
2023-01-29T10:31:40.470Z,29.63
2023-01-29T10:34:25.172Z,25.77
2023-01-29T10:36:55.072Z,26.02
2023-01-29T10:39:24.418Z,22.95
2023-01-29T10:42:12.886Z,24.25
2023-01-29T10:44:57.916Z,25.77
2023-01-29T10:47:33.800Z,25.30
2023-01-29T10:50:17.264Z,25.42
2023-01-29T10:53:01.391Z,23.85
2023-01-29T10:55:34.411Z,26.52
2023-01-29T10:58:15.327Z,21.13
2023-01-29T11:00:42.767Z,21.58
2023-01-29T11:03:28.064Z,20.10
2023-01-29T11:06:23.752Z,20.38
2023-01-29T11:09:24.079Z,22.33
2023-01-29T11:11:58.643Z,15.77
2023-01-29T11:14:42.518Z,19.20
2023-01-29T11:17:17.865Z,20.23
2023-01-29T11:19:48.447Z,22.02
2023-01-29T11:22:21.194Z,22.60
2023-01-29T11:25:11.149Z,21.70
2023-01-29T11:28:00.931Z,20.85
2023-01-29T11:30:32.288Z,17.45
2023-01-29T11:33:12.165Z,17.10
2023-01-29T11:35:39.284Z,21.50
2023-01-29T11:38:24.795Z,20.20
2023-01-29T11:40:52.778Z,16.77
2023-01-29T11:43:27.807Z,16.25
2023-01-29T11:45:58.553Z,15.55
2023-01-29T11:48:40.481Z,17.48
2023-01-29T11:51:08.818Z,13.85
2023-01-29T11:53:37.582Z,14.55
2023-01-29T11:56:26.528Z,15.35
2023-01-29T11:58:56.121Z,16.27
2023-01-29T12:01:38.702Z,15.75
2023-01-29T12:04:25.624Z,17.73
2023-01-29T12:06:54.746Z,14.43
2023-01-29T12:09:27.275Z,16.10
2023-01-29T12:11:54.920Z,17.08
2023-01-29T12:14:39.911Z,16.40
2023-01-29T12:17:19.539Z,13.73
2023-01-29T12:19:55.268Z,19.33
2023-01-29T12:22:42.020Z,19.45
2023-01-29T12:25:40.574Z,13.68
2023-01-29T12:28:22.601Z,17.83
2023-01-29T12:31:08.042Z,15.38
2023-01-29T12:34:05.611Z,14.20
2023-01-29T12:36:38.951Z,15.35
2023-01-29T12:39:06.055Z,19.00
2023-01-29T12:41:46.172Z,17.65
2023-01-29T12:44:35.488Z,18.98
2023-01-29T12:47:06.989Z,16.00
2023-01-29T12:49:37.067Z,16.55
2023-01-29T12:52:16.174Z,15.70
2023-01-29T12:55:03.395Z,14.05
2023-01-29T12:57:46.722Z,15.18
2023-01-29T13:00:19.064Z,12.82
2023-01-29T13:03:08.191Z,14.82
2023-01-29T13:06:08.653Z,18.30
2023-01-29T13:08:54.860Z,10.60
2023-01-29T13:11:37.047Z,11.00
2023-01-29T13:14:26.568Z,13.30
2023-01-29T13:17:02.656Z,10.63
2023-01-29T13:19:37.008Z,11.48
2023-01-29T13:22:10.895Z,15.55
2023-01-29T13:24:41.173Z,13.75
2023-01-29T13:27:34.818Z,12.02
2023-01-29T13:30:04.512Z,12.48
2023-01-29T13:32:34.319Z,17.38
2023-01-29T13:35:13.089Z,10.68
2023-01-29T13:37:54.863Z,14.10
2023-01-29T13:40:27.654Z,11.35
2023-01-29T13:42:58.400Z,11.85
2023-01-29T13:45:36.260Z,11.98
2023-01-29T13:48:28.971Z,16.42
2023-01-29T13:50:59.839Z,12.80
2023-01-29T13:53:36.587Z,12.38
2023-01-29T13:56:32.892Z,11.65
2023-01-29T13:59:02.484Z,9.68
2023-01-29T14:01:47.685Z,12.70
2023-01-29T14:04:26.800Z,12.85
2023-01-29T14:06:58.692Z,12.65
2023-01-29T14:09:45.548Z,16.23
2023-01-29T14:12:21.626Z,18.20
2023-01-29T14:14:48.658Z,13.63
2023-01-29T14:17:17.369Z,12.43
2023-01-29T14:19:52.926Z,12.70
2023-01-29T14:22:26.669Z,13.45
2023-01-29T14:24:57.050Z,11.90
2023-01-29T14:27:25.836Z,12.57
2023-01-29T14:30:06.368Z,12.00
2023-01-29T14:32:34.030Z,13.30
2023-01-29T14:35:06.997Z,22.08
2023-01-29T14:37:39.232Z,14.90
2023-01-29T14:40:27.157Z,10.18
2023-01-29T14:43:04.103Z,13.75
2023-01-29T14:45:36.518Z,9.07
2023-01-29T14:48:09.229Z,12.70
2023-01-29T14:50:36.162Z,18.17
2023-01-29T14:53:37.502Z,14.52
2023-01-29T14:56:14.463Z,10.65
2023-01-29T14:58:56.251Z,15.35
2023-01-29T15:01:30.873Z,13.27
2023-01-29T15:04:06.773Z,16.85
2023-01-29T15:06:46.054Z,15.20
2023-01-29T15:09:40.969Z,10.25
2023-01-29T15:12:15.591Z,13.20
2023-01-29T15:14:59.566Z,13.68
2023-01-29T15:17:33.056Z,13.98
2023-01-29T15:20:00.208Z,17.92
2023-01-29T15:22:29.105Z,15.15
2023-01-29T15:25:07.365Z,20.67
2023-01-29T15:27:34.949Z,13.60
2023-01-29T15:30:04.824Z,24.08
2023-01-29T15:32:40.011Z,20.83
2023-01-29T15:35:19.372Z,21.50
2023-01-29T15:37:59.374Z,16.67
2023-01-29T15:40:26.916Z,16.90
2023-01-29T15:42:54.006Z,20.23
2023-01-29T15:45:32.857Z,21.50
2023-01-29T15:48:15.099Z,21.77
2023-01-29T15:50:42.932Z,18.33
2023-01-29T15:53:17.829Z,21.40
2023-01-29T15:55:45.647Z,21.38
2023-01-29T15:58:18.296Z,20.40
2023-01-29T16:00:53.678Z,21.48
2023-01-29T16:03:23.915Z,22.27
2023-01-29T16:05:52.732Z,23.08
2023-01-29T16:08:23.684Z,23.65
2023-01-29T16:10:55.783Z,20.70
2023-01-29T16:13:25.592Z,22.15
2023-01-29T16:16:16.127Z,27.70
2023-01-29T16:18:58.802Z,22.02
2023-01-29T16:21:37.384Z,23.25
2023-01-29T16:24:14.193Z,26.42
2023-01-29T16:26:46.492Z,23.85
2023-01-29T16:29:28.910Z,24.90
2023-01-29T16:32:01.722Z,19.67
2023-01-29T16:34:34.781Z,22.40
2023-01-29T16:37:05.458Z,27.75
2023-01-29T16:39:39.310Z,23.67
2023-01-29T16:42:19.871Z,23.42
2023-01-29T16:45:03.263Z,22.45
2023-01-29T16:47:39.347Z,25.65
2023-01-29T16:50:46.440Z,23.15
2023-01-29T16:53:24.650Z,22.27
2023-01-29T16:55:52.906Z,28.70
2023-01-29T16:58:22.800Z,25.52
2023-01-29T17:01:11.742Z,22.58
2023-01-29T17:03:40.278Z,19.80
2023-01-29T17:06:21.157Z,23.23
2023-01-29T17:08:48.416Z,21.80
2023-01-29T17:11:31.777Z,24.20
2023-01-29T17:13:59.362Z,26.20
2023-01-29T17:16:29.782Z,22.90
2023-01-29T17:18:57.850Z,21.48
2023-01-29T17:21:25.389Z,23.08
2023-01-29T17:23:52.866Z,18.48
2023-01-29T17:26:21.211Z,21.05
2023-01-29T17:28:52.535Z,22.60
2023-01-29T17:31:19.500Z,19.42
2023-01-29T17:33:47.365Z,19.88
2023-01-29T17:36:17.202Z,19.05
2023-01-29T17:38:44.901Z,23.83
2023-01-29T17:41:28.608Z,19.40
2023-01-29T17:43:55.857Z,20.70
2023-01-29T17:46:22.903Z,20.63
2023-01-29T17:48:50.155Z,21.08
2023-01-29T17:51:18.371Z,27.38
2023-01-29T17:53:46.801Z,22.05
2023-01-29T17:56:17.289Z,21.00
2023-01-29T17:58:44.329Z,19.58
2023-01-29T18:01:11.321Z,23.88
2023-01-29T18:03:38.674Z,20.67
2023-01-29T18:06:08.725Z,27.63
2023-01-29T18:08:38.077Z,20.70
2023-01-29T18:11:05.302Z,23.25
2023-01-29T18:13:32.289Z,22.63
2023-01-29T18:15:59.305Z,21.88
2023-01-29T18:18:26.328Z,22.73
2023-01-29T18:20:53.365Z,21.23
2023-01-29T18:23:20.509Z,23.58
2023-01-29T18:25:47.534Z,26.77
2023-01-29T18:28:17.144Z,24.65
2023-01-29T18:30:47.228Z,24.80
2023-01-29T18:33:15.192Z,20.80
2023-01-29T18:35:44.514Z,22.33
2023-01-29T18:38:11.820Z,24.17
2023-01-29T18:40:38.791Z,27.15
2023-01-29T18:43:05.758Z,24.90
2023-01-29T18:45:32.941Z,23.08
2023-01-29T18:48:00.164Z,23.70
2023-01-29T18:50:27.436Z,21.77
2023-01-29T18:52:55.007Z,23.23
2023-01-29T18:55:22.759Z,21.17
2023-01-29T18:58:26.869Z,22.33
2023-01-29T19:00:43.787Z,21.88
2023-01-29T19:03:11.052Z,21.90
2023-01-29T19:05:38.352Z,19.52
2023-01-29T19:08:05.860Z,21.55
2023-01-29T19:10:33.247Z,21.13
2023-01-29T19:13:00.277Z,19.85
2023-01-29T19:15:27.278Z,20.73
2023-01-29T19:17:54.481Z,19.77
2023-01-29T19:20:21.592Z,22.45
2023-01-29T19:22:48.641Z,26.17
2023-01-29T19:25:16.587Z,18.48
2023-01-29T19:27:43.973Z,19.77
2023-01-29T19:30:12.964Z,19.80
2023-01-29T19:32:41.059Z,16.77
2023-01-29T19:35:08.281Z,24.08
2023-01-29T19:37:35.283Z,20.02
2023-01-29T19:40:02.348Z,22.85
2023-01-29T19:42:29.377Z,22.38
2023-01-29T19:44:56.325Z,17.42
2023-01-29T19:47:23.347Z,17.88
2023-01-29T19:49:50.405Z,22.35
2023-01-29T19:52:51.177Z,19.70
2023-01-29T19:55:20.994Z,22.58
2023-01-29T19:57:48.261Z,23.30
2023-01-29T20:00:17.535Z,20.08
2023-01-29T20:02:44.637Z,23.70
2023-01-29T20:05:13.091Z,19.70
2023-01-29T20:07:41.188Z,22.60
2023-01-29T20:10:11.402Z,20.90
2023-01-29T20:12:38.719Z,23.05
2023-01-29T20:15:07.392Z,24.08
2023-01-29T20:17:34.517Z,18.02
2023-01-29T20:20:01.451Z,21.38
2023-01-29T20:22:29.852Z,22.40
2023-01-29T20:24:57.159Z,18.88
2023-01-29T20:27:24.245Z,22.10
2023-01-29T20:29:52.654Z,19.80
2023-01-29T20:32:19.941Z,18.05
2023-01-29T20:34:51.875Z,21.23
2023-01-29T20:37:19.865Z,21.10
2023-01-29T20:39:47.260Z,17.38
2023-01-29T20:42:14.286Z,17.05
2023-01-29T20:44:41.294Z,15.82
2023-01-29T20:47:08.638Z,18.65
2023-01-29T20:49:35.756Z,18.33
2023-01-29T20:52:02.760Z,12.32
2023-01-29T20:54:30.123Z,25.52
2023-01-29T20:56:57.339Z,27.63
2023-01-29T20:59:24.377Z,27.75
2023-01-29T21:01:51.497Z,28.80
2023-01-29T21:04:18.516Z,23.15
2023-01-29T21:06:45.452Z,25.50
2023-01-29T21:09:12.435Z,19.10
2023-01-29T21:11:39.459Z,23.90
2023-01-29T21:14:07.174Z,19.95
2023-01-29T21:16:34.198Z,25.85
2023-01-29T21:19:01.288Z,26.02
2023-01-29T21:21:28.437Z,42.67
2023-01-29T21:23:55.403Z,41.53
2023-01-29T21:26:23.589Z,32.85
2023-01-29T21:28:50.641Z,34.38
2023-01-29T21:31:17.785Z,26.98
2023-01-29T21:33:44.807Z,25.42
2023-01-29T21:36:11.913Z,26.88
2023-01-29T21:38:39.577Z,24.20
2023-01-29T21:41:09.708Z,23.65
2023-01-29T21:43:37.229Z,25.70
2023-01-29T21:46:11.494Z,23.98
2023-01-29T21:48:39.594Z,22.08
2023-01-29T21:51:07.167Z,24.40
2023-01-29T21:53:34.699Z,20.58
2023-01-29T21:56:03.579Z,22.80
2023-01-29T21:58:30.848Z,21.42
2023-01-29T22:01:35.895Z,19.48
2023-01-29T22:03:47.265Z,19.65
2023-01-29T22:06:14.910Z,17.98
2023-01-29T22:08:41.887Z,26.65
2023-01-29T22:11:09.372Z,14.85
2023-01-29T22:13:36.461Z,20.20
2023-01-29T22:16:03.403Z,14.90
2023-01-29T22:18:30.592Z,16.60
2023-01-29T22:20:58.139Z,15.73
2023-01-29T22:23:25.168Z,15.95
2023-01-29T22:25:52.102Z,13.70
2023-01-29T22:28:19.115Z,14.82
2023-01-29T22:30:46.336Z,14.48
2023-01-29T22:33:13.545Z,14.00
2023-01-29T22:35:40.545Z,11.32
2023-01-29T22:38:07.781Z,12.40
2023-01-29T22:40:34.693Z,16.85
2023-01-29T22:43:01.736Z,9.93
2023-01-29T22:45:28.666Z,10.57
2023-01-29T22:47:55.637Z,13.32
2023-01-29T22:50:22.559Z,13.63
2023-01-29T22:52:53.620Z,11.75
2023-01-29T22:55:21.022Z,11.40
2023-01-29T22:57:50.035Z,10.60
2023-01-29T23:00:17.904Z,12.60
2023-01-29T23:02:47.032Z,11.02
2023-01-29T23:05:14.176Z,8.48
2023-01-29T23:07:41.253Z,11.65
2023-01-29T23:10:10.160Z,11.63
2023-01-29T23:12:37.113Z,8.30
2023-01-29T23:15:04.347Z,7.40
2023-01-29T23:17:31.311Z,9.07
2023-01-29T23:19:58.276Z,9.98
2023-01-29T23:22:25.270Z,11.50
2023-01-29T23:24:52.847Z,12.20
2023-01-29T23:27:20.102Z,11.48
2023-01-29T23:29:48.083Z,13.75
2023-01-29T23:32:17.880Z,12.63
2023-01-29T23:34:45.123Z,8.18
2023-01-29T23:37:12.172Z,14.77
2023-01-29T23:39:39.347Z,11.25
2023-01-29T23:42:06.303Z,15.55
2023-01-29T23:44:33.337Z,13.02
2023-01-29T23:47:00.378Z,9.75
2023-01-29T23:49:27.477Z,13.75
2023-01-29T23:51:54.542Z,9.07
2023-01-29T23:54:21.537Z,10.13
2023-01-29T23:56:48.566Z,11.13
2023-01-29T23:59:16.023Z,11.07
